Time;durP1;ratioP1;P1;durP2;ratioP2;P2;SDS_P1;SDS_P2;PMS_P1;PMS_P2;Temp;Humidity;BMP_temperature;BMP_pressure;BME280_temperature;BME280_humidity;BME280_pressure;Samples;Min_cycle;Max_cycle;Signal;HPM_P1;HPM_P2
2022/07/11 00:01:13;;;;;;;6.88;1.65;;;;;;;14.18;67.58;100400.66;30988933;28;97084;-63
2022/07/11 00:16:14;;;;;;;7.13;1.92;;;;;;;14.19;66.81;100399.66;30929920;28;97622;-63
2022/07/11 00:31:14;;;;;;;6.88;1.92;;;;;;;14.03;66.47;100391.84;30868530;28;98816;-64
2022/07/11 00:46:14;;;;;;;5.35;1.58;;;;;;;14.01;65.93;100385.81;30870376;28;97184;-63
2022/07/11 01:01:15;;;;;;;5.45;1.98;;;;;;;13.84;64.83;100375.31;30916095;28;101495;-62
2022/07/11 01:16:22;;;;;;;3.90;1.50;;;;;;;13.38;64.25;100367.50;30964112;28;97337;-62
2022/07/11 01:31:22;;;;;;;7.73;1.73;;;;;;;12.95;64.47;100364.59;30980113;28;96709;-63
2022/07/11 01:46:22;;;;;;;4.32;1.90;;;;;;;12.57;64.53;100367.25;30978131;28;97334;-63
2022/07/11 02:01:23;;;;;;;5.78;2.17;;;;;;;12.10;64.85;100369.91;30977305;28;96793;-62
2022/07/11 02:16:23;;;;;;;7.10;2.17;;;;;;;11.79;65.32;100375.19;30940876;28;96747;-63
2022/07/11 02:31:23;;;;;;;8.65;2.28;;;;;;;11.48;65.95;100382.16;30851525;28;97590;-62
2022/07/11 02:46:24;;;;;;;6.22;2.47;;;;;;;11.23;66.32;100385.88;30851801;28;105611;-63
2022/07/11 03:01:24;;;;;;;6.22;2.15;;;;;;;11.26;66.82;100382.88;30929483;28;97819;-62
2022/07/11 03:16:25;;;;;;;8.45;2.45;;;;;;;11.55;66.36;100378.78;30939460;28;96859;-62
2022/07/11 03:31:25;;;;;;;6.97;2.58;;;;;;;11.84;66.24;100395.00;30937179;28;97119;-63
2022/07/11 03:46:25;;;;;;;3.50;2.10;;;;;;;12.10;66.05;100388.59;30978704;28;105988;-63
2022/07/11 04:01:26;;;;;;;8.25;2.15;;;;;;;12.04;65.37;100399.94;30889218;28;97194;-62
2022/07/11 04:16:26;;;;;;;6.82;1.90;;;;;;;11.97;65.50;100407.00;30958219;28;96990;-63
2022/07/11 04:31:26;;;;;;;3.92;1.95;;;;;;;12.12;65.71;100404.44;30983202;28;97060;-69
2022/07/11 04:46:27;;;;;;;5.22;2.05;;;;;;;12.63;66.01;100425.31;30980481;28;96980;-64
2022/07/11 05:01:28;;;;;;;3.78;1.70;;;;;;;13.05;65.00;100432.00;30979359;28;96744;-63
2022/07/11 05:16:29;;;;;;;6.40;1.50;;;;;;;13.58;64.69;100444.59;30976256;28;97053;-63
2022/07/11 05:31:31;;;;;;;3.95;1.40;;;;;;;14.46;63.73;100442.81;30970864;28;97964;-76
2022/07/11 05:46:32;;;;;;;7.93;1.13;;;;;;;15.22;61.77;100444.97;30979150;28;98168;-64
2022/07/11 06:01:32;;;;;;;4.47;1.17;;;;;;;15.36;60.43;100442.41;30952507;28;97079;-63
2022/07/11 06:16:33;;;;;;;3.35;1.35;;;;;;;15.74;60.26;100432.09;30865412;28;96671;-63
2022/07/11 06:31:33;;;;;;;5.93;1.33;;;;;;;16.65;59.33;100440.09;30924205;28;97424;-62
2022/07/11 06:46:33;;;;;;;5.38;1.30;;;;;;;17.88;56.81;100444.22;30883036;28;97427;-61
2022/07/11 07:01:34;;;;;;;6.35;1.95;;;;;;;18.27;55.33;100448.66;30868028;28;103844;-63
2022/07/11 07:16:35;;;;;;;5.75;1.58;;;;;;;17.97;54.20;100461.00;30866363;28;97123;-62
2022/07/11 07:31:35;;;;;;;11.07;1.60;;;;;;;17.93;54.39;100431.78;30861971;28;96943;-62
2022/07/11 07:46:35;;;;;;;6.95;1.70;;;;;;;18.87;52.37;100447.44;30862512;28;96889;-62
2022/07/11 08:01:36;;;;;;;4.88;1.52;;;;;;;18.85;51.93;100446.84;30862535;28;96739;-64
2022/07/11 08:16:36;;;;;;;2.70;1.13;;;;;;;20.87;48.99;100443.63;30859163;28;96643;-61
2022/07/11 08:31:37;;;;;;;2.78;0.90;;;;;;;20.96;46.34;100435.97;30857922;28;97718;-62
2022/07/11 08:46:40;;;;;;;4.53;0.70;;;;;;;20.88;46.48;100418.16;30882722;28;96759;-61
2022/07/11 09:01:45;;;;;;;9.13;1.23;;;;;;;21.33;44.15;100421.41;30980361;28;97504;-66
2022/07/11 09:16:54;;;;;;;3.13;0.90;;;;;;;22.58;43.30;100423.69;30895853;28;96694;-62
2022/07/11 09:31:54;;;;;;;2.87;0.60;;;;;;;22.35;41.11;100427.34;30854782;28;96972;-62
2022/07/11 09:46:59;;;;;;;4.50;0.73;;;;;;;21.63;42.96;100411.25;30854056;28;97402;-66
2022/07/11 10:02:01;;;;;;;7.13;3.73;;;;;;;22.76;42.22;100393.59;30873565;28;97256;-62
2022/07/11 10:17:08;;;;;;;1.83;0.60;;;;;;;22.88;40.33;100398.97;30904092;28;97042;-62
2022/07/11 10:32:11;;;;;;;4.17;0.93;;;;;;;22.34;41.01;100395.84;30906750;28;97537;-62
2022/07/11 10:47:44;;;;;;;3.10;0.63;;;;;;;23.02;39.91;100395.88;30847117;28;96759;-63
2022/07/11 11:03:03;;;;;;;1.73;0.70;;;;;;;24.56;38.14;100384.22;30847481;28;97514;-62
2022/07/11 11:18:25;;;;;;;3.00;0.50;;;;;;;24.70;35.89;100378.38;30862910;28;97042;-62
2022/07/11 11:33:27;;;;;;;2.53;0.53;;;;;;;24.67;36.16;100391.44;30981525;28;96911;-63
2022/07/11 11:48:37;;;;;;;5.30;0.70;;;;;;;23.40;37.16;100388.88;30957425;28;97619;-63
2022/07/11 12:04:00;;;;;;;2.73;0.73;;;;;;;23.17;38.33;100398.91;30943111;28;97245;-61
2022/07/11 12:19:02;;;;;;;2.00;0.50;;;;;;;24.09;36.00;100382.94;30920679;28;97946;-62
2022/07/11 12:34:02;;;;;;;3.40;0.73;;;;;;;23.04;36.63;100401.91;30873883;28;96832;-64
2022/07/11 12:49:04;;;;;;;4.50;0.73;;;;;;;21.51;40.94;100475.47;30977484;28;98025;-73
2022/07/11 13:04:04;;;;;;;5.70;0.80;;;;;;;19.53;46.72;100510.13;30981061;28;96778;-67
2022/07/11 13:19:05;;;;;;;2.03;0.90;;;;;;;19.47;49.66;100548.81;30970474;28;97011;-62
2022/07/11 13:34:05;;;;;;;3.10;1.10;;;;;;;20.68;48.58;100529.50;30963278;28;99311;-61
2022/07/11 13:49:05;;;;;;;4.25;0.90;;;;;;;21.49;46.82;100491.16;30979351;28;96883;-62
2022/07/11 14:04:06;;;;;;;1.92;0.50;;;;;;;22.54;45.51;100483.09;30974028;28;97264;-62
2022/07/11 14:19:10;;;;;;;5.00;0.60;;;;;;;22.30;43.49;100476.91;30974540;28;97111;-61
2022/07/11 14:34:11;;;;;;;0.70;0.40;;;;;;;21.53;43.03;100470.69;30972175;28;96925;-61
2022/07/11 14:49:12;;;;;;;2.70;0.47;;;;;;;21.55;43.44;100473.97;30983354;28;97406;-66
2022/07/11 15:04:13;;;;;;;1.50;0.40;;;;;;;22.33;41.77;100479.13;30991042;28;97706;-61
2022/07/11 15:19:13;;;;;;;1.30;0.33;;;;;;;21.64;41.91;100529.47;30989040;28;96663;-67
2022/07/11 15:34:14;;;;;;;1.33;0.50;;;;;;;19.94;47.33;100511.41;30971136;28;96776;-69
2022/07/11 15:49:14;;;;;;;4.60;0.70;;;;;;;19.65;50.24;100514.78;30915126;28;97584;-61
2022/07/11 16:04:15;;;;;;;0.70;0.45;;;;;;;19.88;50.61;100504.19;30902449;28;97112;-60
2022/07/11 16:19:16;;;;;;;0.70;0.68;;;;;;;19.90;51.16;100510.19;30877641;28;97270;-61
2022/07/11 16:34:16;;;;;;;1.40;0.65;;;;;;;19.69;50.61;100513.28;30875615;28;97105;-60
2022/07/11 16:49:16;;;;;;;1.77;0.60;;;;;;;19.71;50.29;100511.19;30857072;28;97739;-61
2022/07/11 17:04:17;;;;;;;1.20;0.43;;;;;;;19.86;49.54;100514.41;30859621;28;97308;-65
2022/07/11 17:19:17;;;;;;;1.02;0.45;;;;;;;19.69;48.77;100518.69;30855574;28;97323;-62
2022/07/11 17:34:17;;;;;;;7.53;3.15;;;;;;;19.33;48.38;100520.25;30857708;28;96811;-61
2022/07/11 17:49:18;;;;;;;1.48;0.65;;;;;;;19.01;48.46;100537.28;30907937;28;98338;-63
2022/07/11 18:04:18;;;;;;;0.90;0.52;;;;;;;18.57;49.98;100558.66;30874030;28;97928;-61
2022/07/11 18:19:19;;;;;;;1.42;0.55;;;;;;;17.91;52.14;100536.28;30962954;28;96887;-61
2022/07/11 18:34:19;;;;;;;8.88;5.95;;;;;;;17.65;53.69;100563.22;30975563;28;96875;-62
2022/07/11 18:49:19;;;;;;;5.53;1.70;;;;;;;17.13;56.42;100565.66;30975124;28;96803;-61
2022/07/11 19:04:20;;;;;;;11.18;7.35;;;;;;;16.34;58.94;100574.06;30962901;28;100695;-62
2022/07/11 19:19:22;;;;;;;3.33;1.20;;;;;;;15.76;61.63;100566.22;30862410;28;97159;-62
2022/07/11 19:34:23;;;;;;;2.23;1.10;;;;;;;15.73;63.76;100594.31;30977654;28;96726;-68
2022/07/11 19:49:23;;;;;;;2.42;1.08;;;;;;;15.33;64.73;100577.81;30989711;28;97348;-66
2022/07/11 20:04:23;;;;;;;2.25;1.10;;;;;;;14.52;66.96;100570.72;30988946;28;96899;-61
2022/07/11 20:19:25;;;;;;;5.47;1.65;;;;;;;14.25;68.42;100571.41;30976056;28;105538;-63
2022/07/11 20:34:25;;;;;;;2.60;1.00;;;;;;;13.79;69.01;100564.34;30915303;28;97612;-72
2022/07/11 20:49:26;;;;;;;1.85;1.33;;;;;;;13.23;71.00;100569.97;30923388;28;97336;-60
2022/07/11 21:04:28;;;;;;;3.67;1.30;;;;;;;12.99;72.08;100574.47;30983864;28;96960;-61
2022/07/11 21:19:28;;;;;;;1.57;0.87;;;;;;;12.80;72.49;100581.91;30982053;28;96759;-62
2022/07/11 21:34:29;;;;;;;1.65;1.02;;;;;;;12.71;73.53;100582.97;30980430;28;96895;-60
2022/07/11 21:49:29;;;;;;;2.70;1.35;;;;;;;12.62;73.89;100590.19;30978480;28;97096;-62
2022/07/11 22:04:30;;;;;;;1.77;1.10;;;;;;;12.58;74.42;100598.75;30978310;28;96752;-60
2022/07/11 22:19:30;;;;;;;2.85;1.60;;;;;;;12.53;74.55;100588.56;30976920;28;96729;-60
2022/07/11 22:34:30;;;;;;;3.58;1.33;;;;;;;12.37;74.95;100608.19;30977157;28;97355;-61
2022/07/11 22:49:31;;;;;;;3.20;1.80;;;;;;;12.17;75.38;100608.53;30972848;28;97102;-60
2022/07/11 23:04:31;;;;;;;3.92;2.00;;;;;;;12.09;76.28;100605.88;30977803;28;97162;-60
2022/07/11 23:19:31;;;;;;;5.75;2.38;;;;;;;12.17;76.90;100608.53;30993282;28;97201;-61
2022/07/11 23:34:32;;;;;;;4.65;2.50;;;;;;;12.25;76.65;100606.88;30992948;28;97165;-65
2022/07/11 23:49:32;;;;;;;4.95;1.75;;;;;;;12.24;77.05;100602.53;30991427;28;96652;-61
